sensor_id;sensor_type;location;lat;lon;timestamp;pressure;altitude;pressure_sealevel;temperature;humidity
72210;BME280;60113;48.762;12.302;2024-01-25T00:00:06;98143.66;;;4.87;89.30
72210;BME280;60113;48.762;12.302;2024-01-25T00:02:32;98137.56;;;4.88;88.84
72210;BME280;60113;48.762;12.302;2024-01-25T00:04:57;98147.06;;;4.89;89.02
72210;BME280;60113;48.762;12.302;2024-01-25T00:07:24;98144.44;;;4.89;89.52
72210;BME280;60113;48.762;12.302;2024-01-25T00:09:50;98146.25;;;4.87;89.91
72210;BME280;60113;48.762;12.302;2024-01-25T00:12:16;98145.38;;;4.88;89.66
72210;BME280;60113;48.762;12.302;2024-01-25T00:14:41;98128.66;;;4.94;89.96
72210;BME280;60113;48.762;12.302;2024-01-25T00:17:07;98126.84;;;4.96;89.50
72210;BME280;60113;48.762;12.302;2024-01-25T00:19:33;98131.06;;;4.98;89.78
72210;BME280;60113;48.762;12.302;2024-01-25T00:21:59;98120.78;;;4.95;90.04
72210;BME280;60113;48.762;12.302;2024-01-25T00:24:25;98132.16;;;4.93;89.58
72210;BME280;60113;48.762;12.302;2024-01-25T00:26:52;98137.25;;;4.96;89.87
72210;BME280;60113;48.762;12.302;2024-01-25T00:29:17;98144.16;;;4.97;90.31
72210;BME280;60113;48.762;12.302;2024-01-25T00:31:44;98153.84;;;4.93;90.11
72210;BME280;60113;48.762;12.302;2024-01-25T00:34:09;98153.13;;;4.90;90.14
72210;BME280;60113;48.762;12.302;2024-01-25T00:36:36;98153.19;;;4.88;90.66
72210;BME280;60113;48.762;12.302;2024-01-25T00:39:02;98149.41;;;4.95;90.34
72210;BME280;60113;48.762;12.302;2024-01-25T00:41:30;98145.78;;;4.99;89.71
72210;BME280;60113;48.762;12.302;2024-01-25T00:43:58;98136.34;;;4.97;89.85
72210;BME280;60113;48.762;12.302;2024-01-25T00:46:23;98142.53;;;4.94;90.57
72210;BME280;60113;48.762;12.302;2024-01-25T00:48:49;98135.31;;;5.01;89.79
72210;BME280;60113;48.762;12.302;2024-01-25T00:51:20;98143.84;;;5.05;89.84
72210;BME280;60113;48.762;12.302;2024-01-25T00:53:46;98138.59;;;5.06;89.68
72210;BME280;60113;48.762;12.302;2024-01-25T00:56:12;98131.56;;;5.08;88.87
72210;BME280;60113;48.762;12.302;2024-01-25T00:58:39;98138.41;;;5.11;89.26
72210;BME280;60113;48.762;12.302;2024-01-25T01:01:05;98134.06;;;5.11;88.96
72210;BME280;60113;48.762;12.302;2024-01-25T01:03:31;98135.56;;;5.17;88.77
72210;BME280;60113;48.762;12.302;2024-01-25T01:05:57;98137.25;;;5.18;88.59
72210;BME280;60113;48.762;12.302;2024-01-25T01:08:23;98138.91;;;5.21;87.89
72210;BME280;60113;48.762;12.302;2024-01-25T01:10:49;98145.84;;;5.20;88.59
72210;BME280;60113;48.762;12.302;2024-01-25T01:13:15;98144.06;;;5.22;88.60
72210;BME280;60113;48.762;12.302;2024-01-25T01:15:40;98143.94;;;5.25;88.38
72210;BME280;60113;48.762;12.302;2024-01-25T01:18:06;98138.91;;;5.21;88.27
72210;BME280;60113;48.762;12.302;2024-01-25T01:20:31;98145.06;;;5.18;88.33
72210;BME280;60113;48.762;12.302;2024-01-25T01:22:57;98139.09;;;5.16;88.73
72210;BME280;60113;48.762;12.302;2024-01-25T01:25:22;98142.69;;;5.12;88.86
72210;BME280;60113;48.762;12.302;2024-01-25T01:27:48;98142.63;;;5.13;88.87
72210;BME280;60113;48.762;12.302;2024-01-25T01:30:13;98146.16;;;5.12;88.91
72210;BME280;60113;48.762;12.302;2024-01-25T01:32:39;98146.28;;;5.09;88.95
72210;BME280;60113;48.762;12.302;2024-01-25T01:35:05;98139.63;;;5.02;88.79
72210;BME280;60113;48.762;12.302;2024-01-25T01:37:30;98139.97;;;4.93;88.87
72210;BME280;60113;48.762;12.302;2024-01-25T01:39:56;98121.25;;;4.83;89.50
72210;BME280;60113;48.762;12.302;2024-01-25T01:42:23;98115.53;;;4.73;89.43
72210;BME280;60113;48.762;12.302;2024-01-25T01:44:52;98117.47;;;4.68;89.76
72210;BME280;60113;48.762;12.302;2024-01-25T01:47:19;98115.97;;;4.62;89.69
72210;BME280;60113;48.762;12.302;2024-01-25T01:49:45;98115.22;;;4.58;89.86
72210;BME280;60113;48.762;12.302;2024-01-25T01:52:11;98116.31;;;4.53;89.53
72210;BME280;60113;48.762;12.302;2024-01-25T01:54:37;98110.59;;;4.43;89.92
72210;BME280;60113;48.762;12.302;2024-01-25T01:57:03;98107.47;;;4.33;90.20
72210;BME280;60113;48.762;12.302;2024-01-25T01:59:30;98109.41;;;4.28;90.52
72210;BME280;60113;48.762;12.302;2024-01-25T02:01:56;98113.00;;;4.23;91.25
72210;BME280;60113;48.762;12.302;2024-01-25T02:04:22;98107.03;;;4.21;91.59
72210;BME280;60113;48.762;12.302;2024-01-25T02:06:47;98111.38;;;4.21;91.55
72210;BME280;60113;48.762;12.302;2024-01-25T02:09:13;98115.88;;;4.16;91.30
72210;BME280;60113;48.762;12.302;2024-01-25T02:11:38;98116.91;;;4.11;92.11
72210;BME280;60113;48.762;12.302;2024-01-25T02:14:04;98115.38;;;4.06;91.47
72210;BME280;60113;48.762;12.302;2024-01-25T02:16:30;98109.50;;;4.00;92.31
72210;BME280;60113;48.762;12.302;2024-01-25T02:18:55;98110.56;;;3.95;91.98
72210;BME280;60113;48.762;12.302;2024-01-25T02:21:23;98101.19;;;3.91;91.91
72210;BME280;60113;48.762;12.302;2024-01-25T02:23:50;98089.28;;;3.83;92.17
72210;BME280;60113;48.762;12.302;2024-01-25T02:26:15;98098.09;;;3.79;92.20
72210;BME280;60113;48.762;12.302;2024-01-25T02:28:41;98099.94;;;3.75;92.42
72210;BME280;60113;48.762;12.302;2024-01-25T02:31:06;98109.56;;;3.73;92.29
72210;BME280;60113;48.762;12.302;2024-01-25T02:33:32;98117.38;;;3.73;92.12
72210;BME280;60113;48.762;12.302;2024-01-25T02:35:57;98120.06;;;3.70;91.80
72210;BME280;60113;48.762;12.302;2024-01-25T02:38:23;98116.81;;;3.63;90.71
72210;BME280;60113;48.762;12.302;2024-01-25T02:40:50;98123.09;;;3.58;90.46
72210;BME280;60113;48.762;12.302;2024-01-25T02:43:15;98113.69;;;3.54;91.44
72210;BME280;60113;48.762;12.302;2024-01-25T02:45:41;98124.13;;;3.52;92.32
72210;BME280;60113;48.762;12.302;2024-01-25T02:48:09;98123.09;;;3.58;93.02
72210;BME280;60113;48.762;12.302;2024-01-25T02:50:35;98118.56;;;3.63;93.64
72210;BME280;60113;48.762;12.302;2024-01-25T02:53:01;98121.88;;;3.68;93.05
72210;BME280;60113;48.762;12.302;2024-01-25T02:55:27;98127.78;;;3.73;93.62
72210;BME280;60113;48.762;12.302;2024-01-25T02:57:53;98124.31;;;3.73;92.48
72210;BME280;60113;48.762;12.302;2024-01-25T03:00:18;98119.97;;;3.73;92.74
72210;BME280;60113;48.762;12.302;2024-01-25T03:02:45;98128.66;;;3.72;92.77
72210;BME280;60113;48.762;12.302;2024-01-25T03:05:11;98130.38;;;3.73;92.95
72210;BME280;60113;48.762;12.302;2024-01-25T03:07:36;98130.31;;;3.75;93.97
72210;BME280;60113;48.762;12.302;2024-01-25T03:10:02;98127.72;;;3.75;92.98
72210;BME280;60113;48.762;12.302;2024-01-25T03:12:29;98131.16;;;3.75;93.21
72210;BME280;60113;48.762;12.302;2024-01-25T03:14:54;98139.81;;;3.76;94.19
72210;BME280;60113;48.762;12.302;2024-01-25T03:17:20;98141.44;;;3.79;94.73
72210;BME280;60113;48.762;12.302;2024-01-25T03:19:45;98135.38;;;3.80;93.88
72210;BME280;60113;48.762;12.302;2024-01-25T03:22:11;98141.38;;;3.80;94.73
72210;BME280;60113;48.762;12.302;2024-01-25T03:24:39;98139.69;;;3.79;93.68
72210;BME280;60113;48.762;12.302;2024-01-25T03:27:05;98145.81;;;3.78;93.50
72210;BME280;60113;48.762;12.302;2024-01-25T03:29:43;98143.25;;;3.77;94.28
72210;BME280;60113;48.762;12.302;2024-01-25T03:32:12;98131.97;;;3.78;94.89
72210;BME280;60113;48.762;12.302;2024-01-25T03:34:38;98137.16;;;3.78;94.72
72210;BME280;60113;48.762;12.302;2024-01-25T03:37:03;98147.50;;;3.79;94.51
72210;BME280;60113;48.762;12.302;2024-01-25T03:39:29;98141.44;;;3.79;94.97
72210;BME280;60113;48.762;12.302;2024-01-25T03:41:57;98149.25;;;3.79;95.43
72210;BME280;60113;48.762;12.302;2024-01-25T03:44:23;98144.97;;;3.78;95.25
72210;BME280;60113;48.762;12.302;2024-01-25T03:46:50;98145.75;;;3.80;95.72
72210;BME280;60113;48.762;12.302;2024-01-25T03:49:15;98154.38;;;3.80;96.19
72210;BME280;60113;48.762;12.302;2024-01-25T03:51:41;98158.72;;;3.81;97.04
72210;BME280;60113;48.762;12.302;2024-01-25T03:54:06;98157.75;;;3.84;97.71
72210;BME280;60113;48.762;12.302;2024-01-25T03:56:32;98151.38;;;3.93;97.13
72210;BME280;60113;48.762;12.302;2024-01-25T03:58:57;98151.97;;;4.01;97.33
72210;BME280;60113;48.762;12.302;2024-01-25T04:01:23;98150.78;;;4.10;96.38
72210;BME280;60113;48.762;12.302;2024-01-25T04:03:49;98148.06;;;4.13;95.98
72210;BME280;60113;48.762;12.302;2024-01-25T04:06:15;98143.56;;;4.18;95.39
72210;BME280;60113;48.762;12.302;2024-01-25T04:08:40;98134.78;;;4.21;95.39
72210;BME280;60113;48.762;12.302;2024-01-25T04:11:06;98138.25;;;4.21;95.03
72210;BME280;60113;48.762;12.302;2024-01-25T04:13:34;98139.88;;;4.24;94.58
72210;BME280;60113;48.762;12.302;2024-01-25T04:15:59;98132.09;;;4.24;94.65
72210;BME280;60113;48.762;12.302;2024-01-25T04:18:25;98133.00;;;4.23;94.32
72210;BME280;60113;48.762;12.302;2024-01-25T04:20:51;98132.13;;;4.22;94.46
72210;BME280;60113;48.762;12.302;2024-01-25T04:23:17;98127.03;;;4.19;94.76
72210;BME280;60113;48.762;12.302;2024-01-25T04:25:42;98126.06;;;4.22;94.81
72210;BME280;60113;48.762;12.302;2024-01-25T04:28:08;98147.84;;;4.19;94.33
72210;BME280;60113;48.762;12.302;2024-01-25T04:30:33;98142.66;;;4.19;94.67
72210;BME280;60113;48.762;12.302;2024-01-25T04:33:00;98140.84;;;4.21;94.14
72210;BME280;60113;48.762;12.302;2024-01-25T04:35:25;98146.00;;;4.23;94.00
72210;BME280;60113;48.762;12.302;2024-01-25T04:37:51;98150.34;;;4.22;93.69
72210;BME280;60113;48.762;12.302;2024-01-25T04:40:16;98152.91;;;4.24;94.03
72210;BME280;60113;48.762;12.302;2024-01-25T04:42:42;98163.19;;;4.27;93.67
72210;BME280;60113;48.762;12.302;2024-01-25T04:45:07;98159.53;;;4.33;93.46
72210;BME280;60113;48.762;12.302;2024-01-25T04:47:37;98169.75;;;4.37;93.41
72210;BME280;60113;48.762;12.302;2024-01-25T04:50:04;98177.56;;;4.37;93.63
72210;BME280;60113;48.762;12.302;2024-01-25T04:52:29;98182.88;;;4.34;93.20
72210;BME280;60113;48.762;12.302;2024-01-25T04:54:55;98185.59;;;4.31;93.66
72210;BME280;60113;48.762;12.302;2024-01-25T04:57:22;98180.34;;;4.33;93.16
72210;BME280;60113;48.762;12.302;2024-01-25T04:59:48;98182.09;;;4.32;93.63
72210;BME280;60113;48.762;12.302;2024-01-25T05:02:14;98183.91;;;4.30;94.07
72210;BME280;60113;48.762;12.302;2024-01-25T05:04:41;98187.41;;;4.29;93.60
72210;BME280;60113;48.762;12.302;2024-01-25T05:07:08;98194.38;;;4.29;93.65
72210;BME280;60113;48.762;12.302;2024-01-25T05:09:33;98183.22;;;4.25;94.08
72210;BME280;60113;48.762;12.302;2024-01-25T05:11:59;98203.91;;;4.28;94.33
72210;BME280;60113;48.762;12.302;2024-01-25T05:14:45;98196.09;;;4.28;94.04
72210;BME280;60113;48.762;12.302;2024-01-25T05:17:11;98199.69;;;4.25;93.63
72210;BME280;60113;48.762;12.302;2024-01-25T05:19:36;98206.53;;;4.28;94.35
72210;BME280;60113;48.762;12.302;2024-01-25T05:22:01;98201.03;;;4.36;94.23
72210;BME280;60113;48.762;12.302;2024-01-25T05:24:33;98201.47;;;4.49;93.52
72210;BME280;60113;48.762;12.302;2024-01-25T05:27:00;98203.97;;;4.52;93.18
72210;BME280;60113;48.762;12.302;2024-01-25T05:29:25;98206.56;;;4.52;93.01
72210;BME280;60113;48.762;12.302;2024-01-25T05:31:50;98214.38;;;4.52;92.92
72210;BME280;60113;48.762;12.302;2024-01-25T05:34:16;98218.78;;;4.50;93.33
72210;BME280;60113;48.762;12.302;2024-01-25T05:36:41;98208.41;;;4.48;93.44
72210;BME280;60113;48.762;12.302;2024-01-25T05:39:07;98214.38;;;4.52;93.07
72210;BME280;60113;48.762;12.302;2024-01-25T05:41:33;98220.38;;;4.54;93.01
72210;BME280;60113;48.762;12.302;2024-01-25T05:43:59;98215.22;;;4.53;93.09
72210;BME280;60113;48.762;12.302;2024-01-25T05:46:25;98223.97;;;4.50;92.93
72210;BME280;60113;48.762;12.302;2024-01-25T05:48:51;98224.94;;;4.47;93.30
72210;BME280;60113;48.762;12.302;2024-01-25T05:51:17;98222.34;;;4.47;92.96
72210;BME280;60113;48.762;12.302;2024-01-25T05:53:43;98219.63;;;4.50;92.52
72210;BME280;60113;48.762;12.302;2024-01-25T05:56:09;98217.03;;;4.50;92.69
72210;BME280;60113;48.762;12.302;2024-01-25T05:58:35;98222.28;;;4.49;92.55
72210;BME280;60113;48.762;12.302;2024-01-25T06:01:00;98231.91;;;4.47;92.13
72210;BME280;60113;48.762;12.302;2024-01-25T06:06:31;98226.63;;;4.48;92.11
72210;BME280;60113;48.762;12.302;2024-01-25T06:08:57;98216.38;;;4.44;92.19
72210;BME280;60113;48.762;12.302;2024-01-25T06:11:27;98225.31;;;4.36;92.25
72210;BME280;60113;48.762;12.302;2024-01-25T06:13:52;98229.22;;;4.24;92.61
72210;BME280;60113;48.762;12.302;2024-01-25T06:16:18;98224.44;;;4.12;93.00
72210;BME280;60113;48.762;12.302;2024-01-25T06:18:44;98218.56;;;4.05;93.47
72210;BME280;60113;48.762;12.302;2024-01-25T06:21:09;98223.88;;;4.02;93.74
72210;BME280;60113;48.762;12.302;2024-01-25T06:23:36;98217.81;;;4.02;94.59
72210;BME280;60113;48.762;12.302;2024-01-25T06:26:02;98232.75;;;3.96;93.47
72210;BME280;60113;48.762;12.302;2024-01-25T06:28:29;98238.16;;;3.90;94.20
72210;BME280;60113;48.762;12.302;2024-01-25T06:30:55;98245.38;;;3.80;94.05
72210;BME280;60113;48.762;12.302;2024-01-25T06:33:21;98256.00;;;3.74;94.72
72210;BME280;60113;48.762;12.302;2024-01-25T06:35:47;98263.00;;;3.72;95.32
72210;BME280;60113;48.762;12.302;2024-01-25T06:38:13;98257.03;;;3.68;95.22
72210;BME280;60113;48.762;12.302;2024-01-25T06:40:39;98261.34;;;3.69;95.77
72210;BME280;60113;48.762;12.302;2024-01-25T06:43:04;98257.66;;;3.77;95.67
72210;BME280;60113;48.762;12.302;2024-01-25T06:45:29;98258.41;;;3.80;96.10
72210;BME280;60113;48.762;12.302;2024-01-25T06:47:55;98271.97;;;3.90;95.42
72210;BME280;60113;48.762;12.302;2024-01-25T06:50:21;98268.34;;;3.94;94.84
72210;BME280;60113;48.762;12.302;2024-01-25T06:52:46;98257.06;;;3.95;95.37
72210;BME280;60113;48.762;12.302;2024-01-25T06:55:12;98254.38;;;3.98;94.89
72210;BME280;60113;48.762;12.302;2024-01-25T06:57:38;98271.56;;;4.03;94.11
72210;BME280;60113;48.762;12.302;2024-01-25T07:00:04;98263.75;;;4.03;94.68
72210;BME280;60113;48.762;12.302;2024-01-25T07:02:30;98259.44;;;4.02;93.99
72210;BME280;60113;48.762;12.302;2024-01-25T07:04:55;98274.16;;;4.03;94.23
72210;BME280;60113;48.762;12.302;2024-01-25T07:07:21;98267.84;;;4.10;93.85
72210;BME280;60113;48.762;12.302;2024-01-25T07:09:46;98260.94;;;4.09;93.97
72210;BME280;60113;48.762;12.302;2024-01-25T07:12:12;98264.53;;;4.05;93.30
72210;BME280;60113;48.762;12.302;2024-01-25T07:14:37;98279.34;;;4.03;93.66
72210;BME280;60113;48.762;12.302;2024-01-25T07:17:03;98291.50;;;4.02;93.35
72210;BME280;60113;48.762;12.302;2024-01-25T07:19:29;98278.56;;;4.00;94.13
72210;BME280;60113;48.762;12.302;2024-01-25T07:21:54;98287.16;;;4.03;93.63
72210;BME280;60113;48.762;12.302;2024-01-25T07:24:20;98282.75;;;4.05;94.36
72210;BME280;60113;48.762;12.302;2024-01-25T07:26:45;98282.59;;;4.09;94.64
72210;BME280;60113;48.762;12.302;2024-01-25T07:29:11;98279.94;;;4.11;94.38
72210;BME280;60113;48.762;12.302;2024-01-25T07:31:37;98290.44;;;4.08;94.17
72210;BME280;60113;48.762;12.302;2024-01-25T07:34:03;98292.25;;;4.06;93.90
72210;BME280;60113;48.762;12.302;2024-01-25T07:36:29;98289.63;;;4.07;94.14
72210;BME280;60113;48.762;12.302;2024-01-25T07:38:54;98286.91;;;4.10;93.78
72210;BME280;60113;48.762;12.302;2024-01-25T07:41:20;98292.00;;;4.13;93.77
72210;BME280;60113;48.762;12.302;2024-01-25T07:43:45;98295.44;;;4.14;94.00
72210;BME280;60113;48.762;12.302;2024-01-25T07:46:11;98308.31;;;4.19;93.61
72210;BME280;60113;48.762;12.302;2024-01-25T07:48:36;98325.63;;;4.20;93.59
72210;BME280;60113;48.762;12.302;2024-01-25T07:51:02;98339.41;;;4.22;93.61
72210;BME280;60113;48.762;12.302;2024-01-25T07:53:29;98350.78;;;4.19;93.19
72210;BME280;60113;48.762;12.302;2024-01-25T07:55:54;98364.59;;;4.21;93.66
72210;BME280;60113;48.762;12.302;2024-01-25T07:58:19;98366.34;;;4.21;93.98
72210;BME280;60113;48.762;12.302;2024-01-25T08:00:45;98369.81;;;4.21;94.06
72210;BME280;60113;48.762;12.302;2024-01-25T08:03:11;98382.78;;;4.23;94.13
72210;BME280;60113;48.762;12.302;2024-01-25T08:05:36;98397.53;;;4.22;94.22
72210;BME280;60113;48.762;12.302;2024-01-25T08:08:01;98396.56;;;4.25;94.30
72210;BME280;60113;48.762;12.302;2024-01-25T08:10:27;98412.94;;;4.29;93.82
72210;BME280;60113;48.762;12.302;2024-01-25T08:12:53;98410.16;;;4.35;93.52
72210;BME280;60113;48.762;12.302;2024-01-25T08:15:19;98400.44;;;4.40;94.02
72210;BME280;60113;48.762;12.302;2024-01-25T08:17:44;98400.25;;;4.46;93.43
72210;BME280;60113;48.762;12.302;2024-01-25T08:20:10;98387.97;;;4.50;93.06
72210;BME280;60113;48.762;12.302;2024-01-25T08:22:40;98397.28;;;4.57;92.70
72210;BME280;60113;48.762;12.302;2024-01-25T08:25:06;98387.59;;;4.61;92.47
72210;BME280;60113;48.762;12.302;2024-01-25T08:27:32;98390.06;;;4.66;91.89
72210;BME280;60113;48.762;12.302;2024-01-25T08:29:58;98389.00;;;4.71;91.83
72210;BME280;60113;48.762;12.302;2024-01-25T08:32:24;98396.66;;;4.76;91.67
72210;BME280;60113;48.762;12.302;2024-01-25T08:34:51;98395.56;;;4.83;91.39
72210;BME280;60113;48.762;12.302;2024-01-25T08:37:16;98402.34;;;4.87;90.60
72210;BME280;60113;48.762;12.302;2024-01-25T08:39:42;98391.88;;;4.89;91.18
72210;BME280;60113;48.762;12.302;2024-01-25T08:42:08;98398.78;;;4.90;90.70
72210;BME280;60113;48.762;12.302;2024-01-25T08:44:33;98394.38;;;4.92;90.69
72210;BME280;60113;48.762;12.302;2024-01-25T08:46:59;98410.72;;;4.97;90.36
72210;BME280;60113;48.762;12.302;2024-01-25T08:49:24;98404.38;;;5.05;88.90
72210;BME280;60113;48.762;12.302;2024-01-25T08:51:50;98401.56;;;5.11;89.34
72210;BME280;60113;48.762;12.302;2024-01-25T08:54:15;98398.78;;;5.16;89.13
72210;BME280;60113;48.762;12.302;2024-01-25T08:56:41;98391.66;;;5.21;88.24
72210;BME280;60113;48.762;12.302;2024-01-25T08:59:06;98395.84;;;5.25;87.41
72210;BME280;60113;48.762;12.302;2024-01-25T09:01:32;98397.31;;;5.32;87.60
72210;BME280;60113;48.762;12.302;2024-01-25T09:03:58;98399.75;;;5.37;86.59
72210;BME280;60113;48.762;12.302;2024-01-25T09:06:28;98395.19;;;5.44;86.96
72210;BME280;60113;48.762;12.302;2024-01-25T09:08:54;98398.34;;;5.52;85.89
72210;BME280;60113;48.762;12.302;2024-01-25T09:11:19;98388.38;;;5.63;86.37
72210;BME280;60113;48.762;12.302;2024-01-25T09:13:45;98386.88;;;5.80;85.90
72210;BME280;60113;48.762;12.302;2024-01-25T09:16:13;98401.13;;;5.95;83.76
72210;BME280;60113;48.762;12.302;2024-01-25T09:18:38;98401.25;;;6.15;84.33
72210;BME280;60113;48.762;12.302;2024-01-25T09:21:04;98403.06;;;6.35;84.81
72210;BME280;60113;48.762;12.302;2024-01-25T09:23:29;98396.94;;;6.36;84.71
72210;BME280;60113;48.762;12.302;2024-01-25T09:25:55;98412.78;;;6.31;84.62
72210;BME280;60113;48.762;12.302;2024-01-25T09:28:21;98401.94;;;6.20;84.42
72210;BME280;60113;48.762;12.302;2024-01-25T09:30:46;98411.75;;;6.13;84.57
72210;BME280;60113;48.762;12.302;2024-01-25T09:33:12;98415.59;;;6.03;83.60
72210;BME280;60113;48.762;12.302;2024-01-25T09:35:37;98414.16;;;5.95;83.99
72210;BME280;60113;48.762;12.302;2024-01-25T09:38:03;98417.22;;;5.83;82.41
72210;BME280;60113;48.762;12.302;2024-01-25T09:40:29;98431.91;;;5.85;83.97
72210;BME280;60113;48.762;12.302;2024-01-25T09:42:54;98430.16;;;5.86;84.85
72210;BME280;60113;48.762;12.302;2024-01-25T09:45:20;98420.66;;;5.83;83.39
72210;BME280;60113;48.762;12.302;2024-01-25T09:47:46;98417.72;;;5.93;85.63
72210;BME280;60113;48.762;12.302;2024-01-25T09:50:11;98421.41;;;6.11;83.36
72210;BME280;60113;48.762;12.302;2024-01-25T09:52:38;98425.38;;;6.21;84.80
72210;BME280;60113;48.762;12.302;2024-01-25T09:55:06;98413.69;;;6.08;82.91
72210;BME280;60113;48.762;12.302;2024-01-25T09:57:35;98428.72;;;6.01;81.67
72210;BME280;60113;48.762;12.302;2024-01-25T10:00:02;98420.22;;;5.96;83.60
72210;BME280;60113;48.762;12.302;2024-01-25T10:02:29;98424.41;;;6.00;85.49
72210;BME280;60113;48.762;12.302;2024-01-25T10:04:55;98429.47;;;6.03;85.14
72210;BME280;60113;48.762;12.302;2024-01-25T10:07:40;98431.38;;;5.99;84.53
72210;BME280;60113;48.762;12.302;2024-01-25T10:10:07;98438.28;;;6.00;86.54
72210;BME280;60113;48.762;12.302;2024-01-25T10:12:34;98439.44;;;5.93;83.82
72210;BME280;60113;48.762;12.302;2024-01-25T10:14:59;98433.38;;;5.93;84.54
72210;BME280;60113;48.762;12.302;2024-01-25T10:17:25;98444.59;;;5.95;85.92
72210;BME280;60113;48.762;12.302;2024-01-25T10:19:51;98441.72;;;6.03;84.42
72210;BME280;60113;48.762;12.302;2024-01-25T10:22:16;98432.00;;;6.06;84.16
72210;BME280;60113;48.762;12.302;2024-01-25T10:24:41;98437.91;;;6.11;84.05
72210;BME280;60113;48.762;12.302;2024-01-25T10:27:07;98428.28;;;6.13;80.83
72210;BME280;60113;48.762;12.302;2024-01-25T10:29:34;98426.50;;;6.14;81.27
72210;BME280;60113;48.762;12.302;2024-01-25T10:32:00;98422.06;;;6.16;83.07
72210;BME280;60113;48.762;12.302;2024-01-25T10:34:28;98420.81;;;6.04;80.29
72210;BME280;60113;48.762;12.302;2024-01-25T10:36:55;98419.19;;;6.00;80.33
72210;BME280;60113;48.762;12.302;2024-01-25T10:39:21;98406.34;;;5.95;78.73
72210;BME280;60113;48.762;12.302;2024-01-25T10:41:47;98413.19;;;5.98;78.58
72210;BME280;60113;48.762;12.302;2024-01-25T10:44:17;98409.53;;;6.02;76.41
72210;BME280;60113;48.762;12.302;2024-01-25T10:46:48;98414.44;;;6.11;76.80
72210;BME280;60113;48.762;12.302;2024-01-25T10:49:16;98418.84;;;6.09;74.40
72210;BME280;60113;48.762;12.302;2024-01-25T10:51:47;98413.75;;;6.29;76.92
72210;BME280;60113;48.762;12.302;2024-01-25T10:54:13;98414.66;;;6.50;77.17
72210;BME280;60113;48.762;12.302;2024-01-25T10:56:44;98413.31;;;6.62;74.22
72210;BME280;60113;48.762;12.302;2024-01-25T10:59:11;98418.16;;;6.92;77.86
72210;BME280;60113;48.762;12.302;2024-01-25T11:01:36;98409.84;;;6.82;70.63
72210;BME280;60113;48.762;12.302;2024-01-25T11:04:11;98421.69;;;6.91;75.13
72210;BME280;60113;48.762;12.302;2024-01-25T11:06:37;98430.50;;;6.88;73.54
72210;BME280;60113;48.762;12.302;2024-01-25T11:09:06;98422.28;;;6.77;72.82
72210;BME280;60113;48.762;12.302;2024-01-25T11:11:35;98418.75;;;6.78;75.19
72210;BME280;60113;48.762;12.302;2024-01-25T11:14:01;98417.88;;;6.78;73.90
72210;BME280;60113;48.762;12.302;2024-01-25T11:16:29;98421.28;;;6.80;73.62
72210;BME280;60113;48.762;12.302;2024-01-25T11:18:56;98412.41;;;6.63;70.97
72210;BME280;60113;48.762;12.302;2024-01-25T11:24:12;98407.16;;;6.63;73.88
72210;BME280;60113;48.762;12.302;2024-01-25T11:26:38;98402.50;;;6.49;69.22
72210;BME280;60113;48.762;12.302;2024-01-25T11:29:05;98415.38;;;6.54;71.17
72210;BME280;60113;48.762;12.302;2024-01-25T11:31:31;98393.75;;;6.50;72.53
72210;BME280;60113;48.762;12.302;2024-01-25T11:34:00;98404.88;;;6.55;73.25
72210;BME280;60113;48.762;12.302;2024-01-25T11:36:26;98411.28;;;6.69;75.03
72210;BME280;60113;48.762;12.302;2024-01-25T11:38:53;98398.22;;;6.69;73.08
72210;BME280;60113;48.762;12.302;2024-01-25T11:41:19;98400.56;;;6.75;74.17
72210;BME280;60113;48.762;12.302;2024-01-25T11:43:45;98394.91;;;6.86;72.73
72210;BME280;60113;48.762;12.302;2024-01-25T11:46:11;98389.47;;;6.91;69.29
72210;BME280;60113;48.762;12.302;2024-01-25T11:48:40;98397.38;;;7.10;70.18
72210;BME280;60113;48.762;12.302;2024-01-25T11:51:09;98380.81;;;7.30;68.97
72210;BME280;60113;48.762;12.302;2024-01-25T11:53:37;98394.50;;;7.56;72.90
72210;BME280;60113;48.762;12.302;2024-01-25T11:56:04;98394.19;;;7.82;72.49
72210;BME280;60113;48.762;12.302;2024-01-25T11:58:31;98392.50;;;8.00;70.86
72210;BME280;60113;48.762;12.302;2024-01-25T12:00:57;98400.25;;;8.01;69.87
72210;BME280;60113;48.762;12.302;2024-01-25T12:03:23;98390.22;;;8.11;71.90
72210;BME280;60113;48.762;12.302;2024-01-25T12:05:48;98404.00;;;8.15;72.20
72210;BME280;60113;48.762;12.302;2024-01-25T12:08:16;98403.03;;;7.98;67.36
72210;BME280;60113;48.762;12.302;2024-01-25T12:10:41;98402.47;;;7.92;69.78
72210;BME280;60113;48.762;12.302;2024-01-25T12:13:07;98402.13;;;7.61;68.84
72210;BME280;60113;48.762;12.302;2024-01-25T12:15:34;98389.69;;;7.47;70.78
72210;BME280;60113;48.762;12.302;2024-01-25T12:18:00;98399.69;;;7.37;72.43
72210;BME280;60113;48.762;12.302;2024-01-25T12:20:26;98393.09;;;7.28;72.49
72210;BME280;60113;48.762;12.302;2024-01-25T12:22:52;98386.81;;;7.13;70.63
72210;BME280;60113;48.762;12.302;2024-01-25T12:25:18;98390.31;;;7.12;72.86
72210;BME280;60113;48.762;12.302;2024-01-25T12:27:44;98376.28;;;7.15;73.20
72210;BME280;60113;48.762;12.302;2024-01-25T12:30:14;98380.50;;;7.17;75.26
72210;BME280;60113;48.762;12.302;2024-01-25T12:32:40;98377.00;;;6.97;69.79
72210;BME280;60113;48.762;12.302;2024-01-25T12:35:06;98375.88;;;7.03;74.40
72210;BME280;60113;48.762;12.302;2024-01-25T12:37:33;98366.09;;;6.87;69.81
72210;BME280;60113;48.762;12.302;2024-01-25T12:40:00;98371.00;;;6.95;73.96
72210;BME280;60113;48.762;12.302;2024-01-25T12:42:26;98376.16;;;6.97;73.84
72210;BME280;60113;48.762;12.302;2024-01-25T12:44:53;98375.69;;;6.87;71.18
72210;BME280;60113;48.762;12.302;2024-01-25T12:47:20;98374.53;;;6.94;73.67
72210;BME280;60113;48.762;12.302;2024-01-25T12:49:45;98371.38;;;7.07;73.55
72210;BME280;60113;48.762;12.302;2024-01-25T12:52:13;98370.13;;;7.16;73.19
72210;BME280;60113;48.762;12.302;2024-01-25T12:54:39;98360.47;;;7.18;73.06
72210;BME280;60113;48.762;12.302;2024-01-25T12:57:05;98363.75;;;7.21;74.39
72210;BME280;60113;48.762;12.302;2024-01-25T12:59:33;98356.91;;;7.19;71.80